ěÝzenÝ letovÚho provozu ╚eskÚ republiky
Letiste: LKCV Aktualizace: 10.05.2021 03:27:23  UTC
 METAR LKCV 10.05. 03:30 ...
METAR LKCV 100330Z 14012KT CAVOK 13/01 Q1010 NOSIG RMK BLU BLU=
 TAF LKCV 09.05. 23:00 AAA
TAF AMD LKCV 092300Z 1001/1100 14014KT CAVOK      TEMPO 1001/1018 15020KT=